sensor_id;sensor_type;location;lat;lon;timestamp;P1;durP1;ratioP1;P2;durP2;ratioP2
22223;SDS011;11281;52.194;21.006;2023-01-29T00:00:04;6.20;;;4.35;;
22223;SDS011;11281;52.194;21.006;2023-01-29T00:04:30;5.70;;;4.88;;
22223;SDS011;11281;52.194;21.006;2023-01-29T00:08:52;7.07;;;4.88;;
22223;SDS011;11281;52.194;21.006;2023-01-29T00:13:13;7.10;;;5.20;;
22223;SDS011;11281;52.194;21.006;2023-01-29T00:17:35;8.40;;;5.28;;
22223;SDS011;11281;52.194;21.006;2023-01-29T00:21:57;11.05;;;5.40;;
22223;SDS011;11281;52.194;21.006;2023-01-29T00:26:19;9.15;;;5.55;;
22223;SDS011;11281;52.194;21.006;2023-01-29T00:30:41;8.52;;;5.15;;
22223;SDS011;11281;52.194;21.006;2023-01-29T00:35:03;8.23;;;4.57;;
22223;SDS011;11281;52.194;21.006;2023-01-29T00:39:26;8.25;;;5.47;;
22223;SDS011;11281;52.194;21.006;2023-01-29T00:43:58;10.50;;;5.85;;
22223;SDS011;11281;52.194;21.006;2023-01-29T00:48:40;9.02;;;5.97;;
22223;SDS011;11281;52.194;21.006;2023-01-29T00:53:01;8.25;;;4.95;;
22223;SDS011;11281;52.194;21.006;2023-01-29T00:57:24;8.27;;;5.43;;
22223;SDS011;11281;52.194;21.006;2023-01-29T01:01:49;7.57;;;5.95;;
22223;SDS011;11281;52.194;21.006;2023-01-29T01:06:29;12.35;;;6.65;;
22223;SDS011;11281;52.194;21.006;2023-01-29T01:10:57;7.88;;;4.90;;
22223;SDS011;11281;52.194;21.006;2023-01-29T01:15:25;9.30;;;5.72;;
22223;SDS011;11281;52.194;21.006;2023-01-29T01:19:50;7.82;;;5.75;;
22223;SDS011;11281;52.194;21.006;2023-01-29T01:24:12;9.20;;;5.40;;
22223;SDS011;11281;52.194;21.006;2023-01-29T01:28:34;8.00;;;5.68;;
22223;SDS011;11281;52.194;21.006;2023-01-29T01:32:56;7.90;;;5.25;;
22223;SDS011;11281;52.194;21.006;2023-01-29T01:37:17;6.70;;;5.22;;
22223;SDS011;11281;52.194;21.006;2023-01-29T01:41:40;4.80;;;4.32;;
22223;SDS011;11281;52.194;21.006;2023-01-29T01:46:01;11.13;;;5.22;;
22223;SDS011;11281;52.194;21.006;2023-01-29T01:50:26;7.40;;;5.13;;
22223;SDS011;11281;52.194;21.006;2023-01-29T01:54:51;6.13;;;4.05;;
22223;SDS011;11281;52.194;21.006;2023-01-29T01:59:14;6.18;;;4.28;;
22223;SDS011;11281;52.194;21.006;2023-01-29T02:03:46;7.20;;;4.10;;
22223;SDS011;11281;52.194;21.006;2023-01-29T02:08:35;5.88;;;4.30;;
22223;SDS011;11281;52.194;21.006;2023-01-29T02:13:23;4.85;;;4.38;;
22223;SDS011;11281;52.194;21.006;2023-01-29T02:17:45;6.03;;;4.80;;
22223;SDS011;11281;52.194;21.006;2023-01-29T02:27:18;7.63;;;4.70;;
22223;SDS011;11281;52.194;21.006;2023-01-29T02:31:46;6.65;;;4.25;;
22223;SDS011;11281;52.194;21.006;2023-01-29T02:36:46;6.70;;;4.55;;
22223;SDS011;11281;52.194;21.006;2023-01-29T02:41:37;5.30;;;4.35;;
22223;SDS011;11281;52.194;21.006;2023-01-29T02:46:37;7.47;;;4.28;;
22223;SDS011;11281;52.194;21.006;2023-01-29T02:51:25;6.47;;;3.95;;
22223;SDS011;11281;52.194;21.006;2023-01-29T02:56:12;7.97;;;4.50;;
22223;SDS011;11281;52.194;21.006;2023-01-29T03:00:44;8.60;;;5.05;;
22223;SDS011;11281;52.194;21.006;2023-01-29T03:05:10;7.63;;;5.25;;
22223;SDS011;11281;52.194;21.006;2023-01-29T03:09:40;9.05;;;5.15;;
22223;SDS011;11281;52.194;21.006;2023-01-29T03:14:15;6.53;;;4.95;;
22223;SDS011;11281;52.194;21.006;2023-01-29T03:23:41;11.45;;;5.75;;
22223;SDS011;11281;52.194;21.006;2023-01-29T03:28:21;7.82;;;5.68;;
22223;SDS011;11281;52.194;21.006;2023-01-29T03:33:04;9.65;;;5.68;;
22223;SDS011;11281;52.194;21.006;2023-01-29T03:37:34;8.27;;;5.82;;
22223;SDS011;11281;52.194;21.006;2023-01-29T03:42:26;10.38;;;5.60;;
22223;SDS011;11281;52.194;21.006;2023-01-29T03:47:04;9.73;;;5.70;;
22223;SDS011;11281;52.194;21.006;2023-01-29T03:51:55;12.60;;;6.05;;
22223;SDS011;11281;52.194;21.006;2023-01-29T03:56:35;10.52;;;5.03;;
22223;SDS011;11281;52.194;21.006;2023-01-29T04:01:19;12.65;;;6.00;;
22223;SDS011;11281;52.194;21.006;2023-01-29T04:06:21;13.18;;;6.30;;
22223;SDS011;11281;52.194;21.006;2023-01-29T04:10:49;11.50;;;6.38;;
22223;SDS011;11281;52.194;21.006;2023-01-29T04:15:15;13.35;;;6.82;;
22223;SDS011;11281;52.194;21.006;2023-01-29T04:19:37;9.68;;;6.28;;
22223;SDS011;11281;52.194;21.006;2023-01-29T04:24:00;8.82;;;5.95;;
22223;SDS011;11281;52.194;21.006;2023-01-29T04:28:23;10.57;;;5.38;;
22223;SDS011;11281;52.194;21.006;2023-01-29T04:47:34;8.93;;;4.75;;
22223;SDS011;11281;52.194;21.006;2023-01-29T05:06:29;9.43;;;4.93;;
22223;SDS011;11281;52.194;21.006;2023-01-29T05:10:52;8.68;;;5.88;;
22223;SDS011;11281;52.194;21.006;2023-01-29T05:15:19;13.52;;;5.70;;
22223;SDS011;11281;52.194;21.006;2023-01-29T05:19:46;7.13;;;5.30;;
22223;SDS011;11281;52.194;21.006;2023-01-29T05:24:15;11.05;;;5.25;;
22223;SDS011;11281;52.194;21.006;2023-01-29T05:28:42;7.65;;;5.68;;
22223;SDS011;11281;52.194;21.006;2023-01-29T05:33:10;13.13;;;5.93;;
22223;SDS011;11281;52.194;21.006;2023-01-29T05:37:45;9.88;;;5.10;;
22223;SDS011;11281;52.194;21.006;2023-01-29T05:42:06;8.02;;;5.28;;
22223;SDS011;11281;52.194;21.006;2023-01-29T05:46:28;7.03;;;5.13;;
22223;SDS011;11281;52.194;21.006;2023-01-29T05:50:50;11.05;;;6.03;;
22223;SDS011;11281;52.194;21.006;2023-01-29T05:55:12;7.88;;;5.35;;
22223;SDS011;11281;52.194;21.006;2023-01-29T05:59:34;12.43;;;4.60;;
22223;SDS011;11281;52.194;21.006;2023-01-29T06:03:55;9.57;;;5.95;;
22223;SDS011;11281;52.194;21.006;2023-01-29T06:08:17;7.70;;;5.68;;
22223;SDS011;11281;52.194;21.006;2023-01-29T06:12:39;11.80;;;5.68;;
22223;SDS011;11281;52.194;21.006;2023-01-29T06:17:02;9.57;;;5.45;;
22223;SDS011;11281;52.194;21.006;2023-01-29T06:21:24;10.68;;;5.57;;
22223;SDS011;11281;52.194;21.006;2023-01-29T06:25:46;8.55;;;5.35;;
22223;SDS011;11281;52.194;21.006;2023-01-29T06:30:08;14.70;;;6.20;;
22223;SDS011;11281;52.194;21.006;2023-01-29T06:34:30;11.00;;;6.28;;
22223;SDS011;11281;52.194;21.006;2023-01-29T06:38:52;9.90;;;6.43;;
22223;SDS011;11281;52.194;21.006;2023-01-29T06:43:14;8.73;;;5.28;;
22223;SDS011;11281;52.194;21.006;2023-01-29T06:47:36;10.38;;;6.45;;
22223;SDS011;11281;52.194;21.006;2023-01-29T06:51:57;10.57;;;5.72;;
22223;SDS011;11281;52.194;21.006;2023-01-29T06:56:19;10.18;;;6.35;;
22223;SDS011;11281;52.194;21.006;2023-01-29T07:00:42;12.05;;;6.22;;
22223;SDS011;11281;52.194;21.006;2023-01-29T07:05:03;13.02;;;6.18;;
22223;SDS011;11281;52.194;21.006;2023-01-29T07:09:25;11.77;;;6.80;;
22223;SDS011;11281;52.194;21.006;2023-01-29T07:13:47;12.75;;;6.80;;
22223;SDS011;11281;52.194;21.006;2023-01-29T07:18:09;10.65;;;6.00;;
22223;SDS011;11281;52.194;21.006;2023-01-29T07:22:34;14.85;;;7.20;;
22223;SDS011;11281;52.194;21.006;2023-01-29T07:26:55;9.93;;;6.68;;
22223;SDS011;11281;52.194;21.006;2023-01-29T07:31:17;16.27;;;6.47;;
22223;SDS011;11281;52.194;21.006;2023-01-29T07:35:40;12.20;;;6.65;;
22223;SDS011;11281;52.194;21.006;2023-01-29T07:40:03;13.88;;;6.57;;
22223;SDS011;11281;52.194;21.006;2023-01-29T07:44:30;11.25;;;6.00;;
22223;SDS011;11281;52.194;21.006;2023-01-29T07:48:52;12.52;;;6.22;;
22223;SDS011;11281;52.194;21.006;2023-01-29T07:53:13;11.82;;;7.32;;
22223;SDS011;11281;52.194;21.006;2023-01-29T07:57:35;12.32;;;7.60;;
22223;SDS011;11281;52.194;21.006;2023-01-29T08:01:57;11.38;;;6.88;;
22223;SDS011;11281;52.194;21.006;2023-01-29T08:06:18;12.27;;;7.75;;
22223;SDS011;11281;52.194;21.006;2023-01-29T08:10:40;12.13;;;7.07;;
22223;SDS011;11281;52.194;21.006;2023-01-29T08:15:02;12.75;;;7.05;;
22223;SDS011;11281;52.194;21.006;2023-01-29T08:19:24;14.55;;;7.45;;
22223;SDS011;11281;52.194;21.006;2023-01-29T08:23:46;12.60;;;8.10;;
22223;SDS011;11281;52.194;21.006;2023-01-29T08:28:08;31.83;;;18.08;;
22223;SDS011;11281;52.194;21.006;2023-01-29T08:32:31;20.35;;;8.95;;
22223;SDS011;11281;52.194;21.006;2023-01-29T08:36:53;16.52;;;10.07;;
22223;SDS011;11281;52.194;21.006;2023-01-29T08:41:15;18.27;;;11.57;;
22223;SDS011;11281;52.194;21.006;2023-01-29T08:45:38;15.05;;;10.20;;
22223;SDS011;11281;52.194;21.006;2023-01-29T08:50:02;14.68;;;8.52;;
22223;SDS011;11281;52.194;21.006;2023-01-29T08:54:24;15.57;;;8.63;;
22223;SDS011;11281;52.194;21.006;2023-01-29T08:58:46;17.90;;;8.80;;
22223;SDS011;11281;52.194;21.006;2023-01-29T09:03:07;13.57;;;8.85;;
22223;SDS011;11281;52.194;21.006;2023-01-29T09:07:29;17.85;;;10.82;;
22223;SDS011;11281;52.194;21.006;2023-01-29T09:11:51;15.60;;;9.52;;
22223;SDS011;11281;52.194;21.006;2023-01-29T09:16:13;18.73;;;10.00;;
22223;SDS011;11281;52.194;21.006;2023-01-29T09:20:35;15.30;;;9.48;;
22223;SDS011;11281;52.194;21.006;2023-01-29T09:24:58;18.13;;;9.63;;
22223;SDS011;11281;52.194;21.006;2023-01-29T09:29:19;14.85;;;8.95;;
22223;SDS011;11281;52.194;21.006;2023-01-29T09:33:41;16.65;;;9.00;;
22223;SDS011;11281;52.194;21.006;2023-01-29T09:38:03;17.25;;;9.52;;
22223;SDS011;11281;52.194;21.006;2023-01-29T09:47:01;16.50;;;8.77;;
22223;SDS011;11281;52.194;21.006;2023-01-29T09:51:28;12.20;;;7.78;;
22223;SDS011;11281;52.194;21.006;2023-01-29T09:55:58;15.75;;;9.30;;
22223;SDS011;11281;52.194;21.006;2023-01-29T10:00:47;16.35;;;9.38;;
22223;SDS011;11281;52.194;21.006;2023-01-29T10:05:43;20.83;;;9.27;;
22223;SDS011;11281;52.194;21.006;2023-01-29T10:25:21;14.15;;;8.07;;
22223;SDS011;11281;52.194;21.006;2023-01-29T10:29:44;18.45;;;8.82;;
22223;SDS011;11281;52.194;21.006;2023-01-29T10:34:16;38.13;;;17.10;;
22223;SDS011;11281;52.194;21.006;2023-01-29T10:38:58;26.00;;;12.23;;
22223;SDS011;11281;52.194;21.006;2023-01-29T11:02:46;14.52;;;9.20;;
22223;SDS011;11281;52.194;21.006;2023-01-29T11:07:10;17.93;;;10.63;;
22223;SDS011;11281;52.194;21.006;2023-01-29T11:16:03;12.65;;;9.00;;
22223;SDS011;11281;52.194;21.006;2023-01-29T11:20:26;16.05;;;9.60;;
22223;SDS011;11281;52.194;21.006;2023-01-29T11:29:45;13.55;;;8.57;;
22223;SDS011;11281;52.194;21.006;2023-01-29T11:34:19;22.55;;;12.23;;
22223;SDS011;11281;52.194;21.006;2023-01-29T11:38:45;19.38;;;9.27;;
22223;SDS011;11281;52.194;21.006;2023-01-29T11:43:27;19.65;;;9.48;;
22223;SDS011;11281;52.194;21.006;2023-01-29T11:47:51;22.45;;;10.27;;
22223;SDS011;11281;52.194;21.006;2023-01-29T11:52:16;17.63;;;10.73;;
22223;SDS011;11281;52.194;21.006;2023-01-29T11:56:42;19.23;;;10.15;;
22223;SDS011;11281;52.194;21.006;2023-01-29T12:01:06;22.52;;;11.98;;
22223;SDS011;11281;52.194;21.006;2023-01-29T12:05:29;18.65;;;10.93;;
22223;SDS011;11281;52.194;21.006;2023-01-29T12:09:55;16.90;;;9.43;;
22223;SDS011;11281;52.194;21.006;2023-01-29T12:14:22;18.52;;;9.80;;
22223;SDS011;11281;52.194;21.006;2023-01-29T12:19:00;15.87;;;9.00;;
22223;SDS011;11281;52.194;21.006;2023-01-29T12:32:59;18.67;;;9.82;;
22223;SDS011;11281;52.194;21.006;2023-01-29T12:42:24;17.13;;;9.82;;
22223;SDS011;11281;52.194;21.006;2023-01-29T12:46:49;21.23;;;12.40;;
22223;SDS011;11281;52.194;21.006;2023-01-29T12:51:19;22.20;;;11.23;;
22223;SDS011;11281;52.194;21.006;2023-01-29T12:56:01;19.85;;;11.18;;
22223;SDS011;11281;52.194;21.006;2023-01-29T13:00:31;18.15;;;10.23;;
22223;SDS011;11281;52.194;21.006;2023-01-29T13:05:26;22.90;;;10.75;;
22223;SDS011;11281;52.194;21.006;2023-01-29T13:10:00;19.58;;;10.77;;
22223;SDS011;11281;52.194;21.006;2023-01-29T13:14:34;15.20;;;9.90;;
22223;SDS011;11281;52.194;21.006;2023-01-29T13:19:21;22.00;;;11.50;;
22223;SDS011;11281;52.194;21.006;2023-01-29T13:23:53;26.38;;;11.82;;
22223;SDS011;11281;52.194;21.006;2023-01-29T13:28:22;19.35;;;11.43;;
22223;SDS011;11281;52.194;21.006;2023-01-29T13:32:49;18.67;;;10.65;;
22223;SDS011;11281;52.194;21.006;2023-01-29T13:37:25;24.98;;;12.30;;
22223;SDS011;11281;52.194;21.006;2023-01-29T13:41:51;25.38;;;11.82;;
22223;SDS011;11281;52.194;21.006;2023-01-29T13:46:16;19.05;;;10.75;;
22223;SDS011;11281;52.194;21.006;2023-01-29T13:50:41;22.42;;;10.93;;
22223;SDS011;11281;52.194;21.006;2023-01-29T13:55:06;17.55;;;10.80;;
22223;SDS011;11281;52.194;21.006;2023-01-29T14:08:42;22.63;;;11.25;;
22223;SDS011;11281;52.194;21.006;2023-01-29T14:17:53;20.52;;;11.32;;
22223;SDS011;11281;52.194;21.006;2023-01-29T14:22:30;19.23;;;10.50;;
22223;SDS011;11281;52.194;21.006;2023-01-29T14:26:53;24.00;;;11.45;;
22223;SDS011;11281;52.194;21.006;2023-01-29T14:31:26;18.25;;;10.95;;
22223;SDS011;11281;52.194;21.006;2023-01-29T14:36:26;27.80;;;12.43;;
22223;SDS011;11281;52.194;21.006;2023-01-29T14:40:48;30.35;;;13.18;;
22223;SDS011;11281;52.194;21.006;2023-01-29T14:54:26;31.27;;;14.38;;
22223;SDS011;11281;52.194;21.006;2023-01-29T14:59:10;28.15;;;14.45;;
22223;SDS011;11281;52.194;21.006;2023-01-29T15:03:50;25.60;;;12.63;;
22223;SDS011;11281;52.194;21.006;2023-01-29T15:08:39;26.77;;;11.52;;
22223;SDS011;11281;52.194;21.006;2023-01-29T15:13:13;27.15;;;12.07;;
22223;SDS011;11281;52.194;21.006;2023-01-29T15:17:56;27.65;;;12.45;;
22223;SDS011;11281;52.194;21.006;2023-01-29T15:22:25;24.88;;;13.10;;
22223;SDS011;11281;52.194;21.006;2023-01-29T15:26:49;32.25;;;12.27;;
22223;SDS011;11281;52.194;21.006;2023-01-29T15:31:11;26.40;;;12.63;;
22223;SDS011;11281;52.194;21.006;2023-01-29T15:35:37;27.00;;;13.80;;
22223;SDS011;11281;52.194;21.006;2023-01-29T15:40:02;25.20;;;13.75;;
22223;SDS011;11281;52.194;21.006;2023-01-29T15:44:27;27.67;;;13.73;;
22223;SDS011;11281;52.194;21.006;2023-01-29T15:48:48;24.45;;;12.40;;
22223;SDS011;11281;52.194;21.006;2023-01-29T15:53:16;28.65;;;12.77;;
22223;SDS011;11281;52.194;21.006;2023-01-29T15:57:41;27.02;;;12.60;;
22223;SDS011;11281;52.194;21.006;2023-01-29T16:02:19;28.95;;;12.80;;
22223;SDS011;11281;52.194;21.006;2023-01-29T16:06:54;34.90;;;16.02;;
22223;SDS011;11281;52.194;21.006;2023-01-29T16:11:18;41.20;;;19.98;;
22223;SDS011;11281;52.194;21.006;2023-01-29T16:15:52;28.10;;;14.65;;
22223;SDS011;11281;52.194;21.006;2023-01-29T16:20:36;26.27;;;14.35;;
22223;SDS011;11281;52.194;21.006;2023-01-29T16:25:03;31.33;;;13.90;;
22223;SDS011;11281;52.194;21.006;2023-01-29T16:29:29;25.55;;;12.75;;
22223;SDS011;11281;52.194;21.006;2023-01-29T16:33:53;32.38;;;16.20;;
22223;SDS011;11281;52.194;21.006;2023-01-29T16:38:38;26.75;;;14.95;;
22223;SDS011;11281;52.194;21.006;2023-01-29T16:47:45;25.98;;;12.02;;
22223;SDS011;11281;52.194;21.006;2023-01-29T16:52:55;15.85;;;10.45;;
22223;SDS011;11281;52.194;21.006;2023-01-29T16:57:22;18.45;;;11.43;;
22223;SDS011;11281;52.194;21.006;2023-01-29T17:01:47;26.75;;;12.85;;
22223;SDS011;11281;52.194;21.006;2023-01-29T17:06:10;20.42;;;11.02;;
22223;SDS011;11281;52.194;21.006;2023-01-29T17:10:39;20.45;;;11.45;;
22223;SDS011;11281;52.194;21.006;2023-01-29T17:15:26;24.33;;;11.68;;
22223;SDS011;11281;52.194;21.006;2023-01-29T17:19:52;25.85;;;12.88;;
22223;SDS011;11281;52.194;21.006;2023-01-29T17:24:14;26.05;;;12.85;;
22223;SDS011;11281;52.194;21.006;2023-01-29T17:28:36;25.58;;;12.20;;
22223;SDS011;11281;52.194;21.006;2023-01-29T17:32:57;27.45;;;12.45;;
22223;SDS011;11281;52.194;21.006;2023-01-29T17:37:19;26.10;;;13.02;;
22223;SDS011;11281;52.194;21.006;2023-01-29T17:41:41;21.73;;;12.80;;
22223;SDS011;11281;52.194;21.006;2023-01-29T17:46:15;22.90;;;12.60;;
22223;SDS011;11281;52.194;21.006;2023-01-29T17:50:38;30.58;;;11.38;;
22223;SDS011;11281;52.194;21.006;2023-01-29T17:55:01;25.25;;;12.10;;
22223;SDS011;11281;52.194;21.006;2023-01-29T17:59:28;22.75;;;12.60;;
22223;SDS011;11281;52.194;21.006;2023-01-29T18:03:52;28.65;;;13.25;;
22223;SDS011;11281;52.194;21.006;2023-01-29T18:12:50;27.50;;;14.55;;
22223;SDS011;11281;52.194;21.006;2023-01-29T18:17:12;31.73;;;14.88;;
22223;SDS011;11281;52.194;21.006;2023-01-29T18:21:34;29.90;;;14.70;;
22223;SDS011;11281;52.194;21.006;2023-01-29T18:25:55;30.30;;;13.35;;
22223;SDS011;11281;52.194;21.006;2023-01-29T18:30:17;28.67;;;13.23;;
22223;SDS011;11281;52.194;21.006;2023-01-29T18:34:39;22.55;;;12.65;;
22223;SDS011;11281;52.194;21.006;2023-01-29T18:39:01;26.50;;;14.32;;
22223;SDS011;11281;52.194;21.006;2023-01-29T18:43:22;24.40;;;13.32;;
22223;SDS011;11281;52.194;21.006;2023-01-29T18:47:44;26.88;;;15.20;;
22223;SDS011;11281;52.194;21.006;2023-01-29T18:52:08;31.98;;;14.75;;
22223;SDS011;11281;52.194;21.006;2023-01-29T18:56:29;30.80;;;15.20;;
22223;SDS011;11281;52.194;21.006;2023-01-29T19:00:51;24.63;;;12.05;;
22223;SDS011;11281;52.194;21.006;2023-01-29T19:05:13;29.60;;;14.63;;
22223;SDS011;11281;52.194;21.006;2023-01-29T19:09:36;31.10;;;14.52;;
22223;SDS011;11281;52.194;21.006;2023-01-29T19:14:00;32.35;;;13.82;;
22223;SDS011;11281;52.194;21.006;2023-01-29T19:18:22;29.50;;;14.52;;
22223;SDS011;11281;52.194;21.006;2023-01-29T19:22:45;29.77;;;15.32;;
22223;SDS011;11281;52.194;21.006;2023-01-29T19:27:08;35.78;;;15.50;;
22223;SDS011;11281;52.194;21.006;2023-01-29T19:31:29;34.92;;;15.40;;
22223;SDS011;11281;52.194;21.006;2023-01-29T19:35:54;30.60;;;14.80;;
22223;SDS011;11281;52.194;21.006;2023-01-29T19:40:17;31.83;;;15.43;;
22223;SDS011;11281;52.194;21.006;2023-01-29T19:44:39;35.70;;;14.13;;
22223;SDS011;11281;52.194;21.006;2023-01-29T19:49:01;35.08;;;14.57;;
22223;SDS011;11281;52.194;21.006;2023-01-29T19:53:27;29.85;;;14.10;;
22223;SDS011;11281;52.194;21.006;2023-01-29T19:57:52;32.70;;;14.32;;
22223;SDS011;11281;52.194;21.006;2023-01-29T20:02:14;32.45;;;13.75;;
22223;SDS011;11281;52.194;21.006;2023-01-29T20:06:36;30.70;;;14.43;;
22223;SDS011;11281;52.194;21.006;2023-01-29T20:10:58;28.92;;;14.38;;
22223;SDS011;11281;52.194;21.006;2023-01-29T20:15:20;32.90;;;14.27;;
22223;SDS011;11281;52.194;21.006;2023-01-29T20:19:45;31.48;;;14.20;;
22223;SDS011;11281;52.194;21.006;2023-01-29T20:24:10;34.67;;;14.15;;
22223;SDS011;11281;52.194;21.006;2023-01-29T20:28:32;28.80;;;12.68;;
22223;SDS011;11281;52.194;21.006;2023-01-29T20:32:54;27.98;;;13.45;;
22223;SDS011;11281;52.194;21.006;2023-01-29T20:37:16;30.40;;;14.07;;
22223;SDS011;11281;52.194;21.006;2023-01-29T20:41:39;31.10;;;13.75;;
22223;SDS011;11281;52.194;21.006;2023-01-29T20:46:01;25.20;;;12.77;;
22223;SDS011;11281;52.194;21.006;2023-01-29T20:50:23;26.15;;;13.48;;
22223;SDS011;11281;52.194;21.006;2023-01-29T20:54:45;35.30;;;14.40;;
22223;SDS011;11281;52.194;21.006;2023-01-29T20:59:07;31.08;;;15.05;;
22223;SDS011;11281;52.194;21.006;2023-01-29T21:03:29;27.92;;;13.18;;
22223;SDS011;11281;52.194;21.006;2023-01-29T21:07:51;32.28;;;14.63;;
22223;SDS011;11281;52.194;21.006;2023-01-29T21:12:12;27.45;;;13.48;;
22223;SDS011;11281;52.194;21.006;2023-01-29T21:16:34;28.00;;;14.32;;
22223;SDS011;11281;52.194;21.006;2023-01-29T21:20:56;29.00;;;13.80;;
22223;SDS011;11281;52.194;21.006;2023-01-29T21:25:17;27.55;;;12.85;;
22223;SDS011;11281;52.194;21.006;2023-01-29T21:29:41;28.35;;;13.23;;
22223;SDS011;11281;52.194;21.006;2023-01-29T21:34:02;27.40;;;13.70;;
22223;SDS011;11281;52.194;21.006;2023-01-29T21:38:25;28.60;;;13.98;;
22223;SDS011;11281;52.194;21.006;2023-01-29T21:42:47;29.02;;;14.07;;
22223;SDS011;11281;52.194;21.006;2023-01-29T21:47:27;25.33;;;11.93;;
22223;SDS011;11281;52.194;21.006;2023-01-29T21:51:48;29.75;;;12.98;;
22223;SDS011;11281;52.194;21.006;2023-01-29T21:56:10;29.48;;;13.60;;
22223;SDS011;11281;52.194;21.006;2023-01-29T22:00:32;22.95;;;11.38;;
22223;SDS011;11281;52.194;21.006;2023-01-29T22:04:54;25.70;;;11.57;;
22223;SDS011;11281;52.194;21.006;2023-01-29T22:09:18;29.05;;;12.73;;
22223;SDS011;11281;52.194;21.006;2023-01-29T22:13:41;31.90;;;13.63;;
22223;SDS011;11281;52.194;21.006;2023-01-29T22:18:03;26.02;;;12.65;;
22223;SDS011;11281;52.194;21.006;2023-01-29T22:22:24;27.13;;;12.88;;
22223;SDS011;11281;52.194;21.006;2023-01-29T22:26:46;23.42;;;12.00;;
22223;SDS011;11281;52.194;21.006;2023-01-29T22:31:08;22.27;;;12.57;;
22223;SDS011;11281;52.194;21.006;2023-01-29T22:35:30;28.88;;;12.73;;
22223;SDS011;11281;52.194;21.006;2023-01-29T22:39:52;29.42;;;13.73;;
22223;SDS011;11281;52.194;21.006;2023-01-29T22:44:13;31.90;;;13.43;;
22223;SDS011;11281;52.194;21.006;2023-01-29T22:48:35;30.35;;;13.07;;
22223;SDS011;11281;52.194;21.006;2023-01-29T22:52:57;25.73;;;13.20;;
22223;SDS011;11281;52.194;21.006;2023-01-29T22:57:19;24.90;;;11.95;;
22223;SDS011;11281;52.194;21.006;2023-01-29T23:01:41;27.95;;;12.90;;
22223;SDS011;11281;52.194;21.006;2023-01-29T23:06:04;30.17;;;13.98;;
22223;SDS011;11281;52.194;21.006;2023-01-29T23:10:25;29.15;;;13.68;;
22223;SDS011;11281;52.194;21.006;2023-01-29T23:14:47;33.33;;;14.05;;
22223;SDS011;11281;52.194;21.006;2023-01-29T23:19:09;26.70;;;13.38;;
22223;SDS011;11281;52.194;21.006;2023-01-29T23:23:32;33.28;;;14.95;;
22223;SDS011;11281;52.194;21.006;2023-01-29T23:27:56;33.10;;;14.48;;
22223;SDS011;11281;52.194;21.006;2023-01-29T23:32:19;34.72;;;15.40;;
22223;SDS011;11281;52.194;21.006;2023-01-29T23:36:41;25.92;;;13.05;;
22223;SDS011;11281;52.194;21.006;2023-01-29T23:41:03;31.38;;;13.95;;
22223;SDS011;11281;52.194;21.006;2023-01-29T23:45:25;34.45;;;14.60;;
22223;SDS011;11281;52.194;21.006;2023-01-29T23:49:47;28.98;;;13.98;;
22223;SDS011;11281;52.194;21.006;2023-01-29T23:54:09;31.15;;;14.68;;
22223;SDS011;11281;52.194;21.006;2023-01-29T23:58:31;31.48;;;15.52;;
